sensor_id;sensor_type;location;lat;lon;timestamp;temperature;humidity
24730;DHT22;12832;52.392;13.066;2023-05-10T00:01:40;26.30;28.10
24730;DHT22;12832;52.392;13.066;2023-05-10T00:04:06;26.30;28.20
24730;DHT22;12832;52.392;13.066;2023-05-10T00:06:32;26.30;28.20
24730;DHT22;12832;52.392;13.066;2023-05-10T00:08:58;26.20;28.20
24730;DHT22;12832;52.392;13.066;2023-05-10T00:11:25;26.30;28.20
24730;DHT22;12832;52.392;13.066;2023-05-10T00:13:51;26.30;28.20
24730;DHT22;12832;52.392;13.066;2023-05-10T00:16:17;26.30;28.10
24730;DHT22;12832;52.392;13.066;2023-05-10T00:18:43;26.20;28.10
24730;DHT22;12832;52.392;13.066;2023-05-10T00:21:09;26.20;28.20
24730;DHT22;12832;52.392;13.066;2023-05-10T00:23:36;26.20;28.20
24730;DHT22;12832;52.392;13.066;2023-05-10T00:26:02;26.30;28.20
24730;DHT22;12832;52.392;13.066;2023-05-10T00:28:28;26.20;28.70
24730;DHT22;12832;52.392;13.066;2023-05-10T00:30:55;26.20;28.20
24730;DHT22;12832;52.392;13.066;2023-05-10T00:33:21;26.20;28.20
24730;DHT22;12832;52.392;13.066;2023-05-10T00:35:47;26.20;28.20
24730;DHT22;12832;52.392;13.066;2023-05-10T00:38:13;26.20;28.20
24730;DHT22;12832;52.392;13.066;2023-05-10T00:40:40;26.20;28.20
24730;DHT22;12832;52.392;13.066;2023-05-10T00:43:07;26.20;28.20
24730;DHT22;12832;52.392;13.066;2023-05-10T00:45:34;26.20;28.20
24730;DHT22;12832;52.392;13.066;2023-05-10T00:48:02;26.20;28.20
24730;DHT22;12832;52.392;13.066;2023-05-10T00:50:30;26.20;28.20
24730;DHT22;12832;52.392;13.066;2023-05-10T00:52:59;26.20;28.20
24730;DHT22;12832;52.392;13.066;2023-05-10T00:55:25;26.20;28.20
24730;DHT22;12832;52.392;13.066;2023-05-10T00:57:53;26.20;28.30
24730;DHT22;12832;52.392;13.066;2023-05-10T01:00:19;26.10;28.30
24730;DHT22;12832;52.392;13.066;2023-05-10T01:02:46;26.10;28.30
24730;DHT22;12832;52.392;13.066;2023-05-10T01:05:13;26.10;28.30
24730;DHT22;12832;52.392;13.066;2023-05-10T01:07:39;26.10;28.30
24730;DHT22;12832;52.392;13.066;2023-05-10T01:10:06;26.10;28.30
24730;DHT22;12832;52.392;13.066;2023-05-10T01:12:35;26.10;28.30
24730;DHT22;12832;52.392;13.066;2023-05-10T01:15:03;26.10;28.30
24730;DHT22;12832;52.392;13.066;2023-05-10T01:17:30;26.10;28.30
24730;DHT22;12832;52.392;13.066;2023-05-10T01:19:56;26.20;28.30
24730;DHT22;12832;52.392;13.066;2023-05-10T01:23:26;26.20;28.30
24730;DHT22;12832;52.392;13.066;2023-05-10T01:33:59;26.20;28.40
24730;DHT22;12832;52.392;13.066;2023-05-10T01:39:20;26.10;28.30
24730;DHT22;12832;52.392;13.066;2023-05-10T01:47:46;26.20;28.40
24730;DHT22;12832;52.392;13.066;2023-05-10T01:50:23;26.20;28.40
24730;DHT22;12832;52.392;13.066;2023-05-10T01:52:53;26.20;28.40
24730;DHT22;12832;52.392;13.066;2023-05-10T01:55:22;26.20;28.40
24730;DHT22;12832;52.392;13.066;2023-05-10T01:57:52;26.20;28.40
24730;DHT22;12832;52.392;13.066;2023-05-10T02:00:22;26.20;28.40
24730;DHT22;12832;52.392;13.066;2023-05-10T02:02:49;26.20;28.40
24730;DHT22;12832;52.392;13.066;2023-05-10T02:05:17;26.20;28.40
24730;DHT22;12832;52.392;13.066;2023-05-10T02:07:45;26.20;28.40
24730;DHT22;12832;52.392;13.066;2023-05-10T02:10:12;26.20;28.40
24730;DHT22;12832;52.392;13.066;2023-05-10T02:12:43;26.20;28.30
24730;DHT22;12832;52.392;13.066;2023-05-10T02:15:11;26.20;28.30
24730;DHT22;12832;52.392;13.066;2023-05-10T02:17:39;26.20;28.30
24730;DHT22;12832;52.392;13.066;2023-05-10T02:20:06;26.20;28.30
24730;DHT22;12832;52.392;13.066;2023-05-10T02:22:35;26.20;28.30
24730;DHT22;12832;52.392;13.066;2023-05-10T02:25:03;26.30;28.30
24730;DHT22;12832;52.392;13.066;2023-05-10T02:27:30;26.20;28.30
24730;DHT22;12832;52.392;13.066;2023-05-10T02:29:57;26.30;28.30
24730;DHT22;12832;52.392;13.066;2023-05-10T02:32:25;26.30;28.30
24730;DHT22;12832;52.392;13.066;2023-05-10T02:34:52;26.30;28.30
24730;DHT22;12832;52.392;13.066;2023-05-10T02:37:20;26.30;28.30
24730;DHT22;12832;52.392;13.066;2023-05-10T02:39:48;26.20;28.30
24730;DHT22;12832;52.392;13.066;2023-05-10T02:42:17;26.30;28.30
24730;DHT22;12832;52.392;13.066;2023-05-10T02:44:48;26.30;28.30
24730;DHT22;12832;52.392;13.066;2023-05-10T02:47:14;26.20;28.30
24730;DHT22;12832;52.392;13.066;2023-05-10T02:49:40;26.20;28.30
24730;DHT22;12832;52.392;13.066;2023-05-10T02:52:07;26.30;28.40
24730;DHT22;12832;52.392;13.066;2023-05-10T02:54:41;26.20;28.30
24730;DHT22;12832;52.392;13.066;2023-05-10T02:57:10;26.30;28.30
24730;DHT22;12832;52.392;13.066;2023-05-10T02:59:40;26.20;28.40
24730;DHT22;12832;52.392;13.066;2023-05-10T03:02:09;26.20;28.30
24730;DHT22;12832;52.392;13.066;2023-05-10T03:04:36;26.30;28.30
24730;DHT22;12832;52.392;13.066;2023-05-10T03:07:02;26.20;28.40
24730;DHT22;12832;52.392;13.066;2023-05-10T03:09:29;26.30;28.40
24730;DHT22;12832;52.392;13.066;2023-05-10T03:12:15;26.20;28.30
24730;DHT22;12832;52.392;13.066;2023-05-10T03:14:57;26.20;28.40
24730;DHT22;12832;52.392;13.066;2023-05-10T03:17:31;26.20;28.40
24730;DHT22;12832;52.392;13.066;2023-05-10T03:20:08;26.30;28.40
24730;DHT22;12832;52.392;13.066;2023-05-10T03:22:50;26.20;28.30
24730;DHT22;12832;52.392;13.066;2023-05-10T03:25:19;26.20;28.90
24730;DHT22;12832;52.392;13.066;2023-05-10T03:27:47;26.20;28.40
24730;DHT22;12832;52.392;13.066;2023-05-10T03:30:14;26.30;28.40
24730;DHT22;12832;52.392;13.066;2023-05-10T03:32:41;26.30;28.40
24730;DHT22;12832;52.392;13.066;2023-05-10T03:35:08;26.30;28.40
24730;DHT22;12832;52.392;13.066;2023-05-10T03:37:35;26.20;28.90
24730;DHT22;12832;52.392;13.066;2023-05-10T03:40:02;26.30;28.40
24730;DHT22;12832;52.392;13.066;2023-05-10T03:42:28;26.20;28.40
24730;DHT22;12832;52.392;13.066;2023-05-10T03:44:55;26.20;28.40
24730;DHT22;12832;52.392;13.066;2023-05-10T03:47:21;26.20;28.40
24730;DHT22;12832;52.392;13.066;2023-05-10T03:49:47;26.20;28.40
24730;DHT22;12832;52.392;13.066;2023-05-10T03:52:13;26.20;28.40
24730;DHT22;12832;52.392;13.066;2023-05-10T03:54:40;26.20;28.40
24730;DHT22;12832;52.392;13.066;2023-05-10T03:57:06;26.20;28.40
24730;DHT22;12832;52.392;13.066;2023-05-10T03:59:32;26.20;28.40
24730;DHT22;12832;52.392;13.066;2023-05-10T04:01:58;26.20;28.40
24730;DHT22;12832;52.392;13.066;2023-05-10T04:04:24;26.20;28.50
24730;DHT22;12832;52.392;13.066;2023-05-10T04:06:50;26.20;28.50
24730;DHT22;12832;52.392;13.066;2023-05-10T04:09:17;26.20;28.50
24730;DHT22;12832;52.392;13.066;2023-05-10T04:11:43;26.20;28.60
24730;DHT22;12832;52.392;13.066;2023-05-10T04:14:09;26.10;29.00
24730;DHT22;12832;52.392;13.066;2023-05-10T04:16:35;26.20;28.60
24730;DHT22;12832;52.392;13.066;2023-05-10T04:19:02;26.20;28.60
24730;DHT22;12832;52.392;13.066;2023-05-10T04:21:28;26.20;28.60
24730;DHT22;12832;52.392;13.066;2023-05-10T04:23:54;26.10;28.50
24730;DHT22;12832;52.392;13.066;2023-05-10T04:26:20;26.10;28.50
24730;DHT22;12832;52.392;13.066;2023-05-10T04:28:48;26.20;28.60
24730;DHT22;12832;52.392;13.066;2023-05-10T04:31:14;26.20;28.60
24730;DHT22;12832;52.392;13.066;2023-05-10T04:33:40;26.20;28.60
24730;DHT22;12832;52.392;13.066;2023-05-10T04:36:06;26.20;28.60
24730;DHT22;12832;52.392;13.066;2023-05-10T04:38:33;26.20;28.60
24730;DHT22;12832;52.392;13.066;2023-05-10T04:41:06;26.20;28.60
24730;DHT22;12832;52.392;13.066;2023-05-10T04:43:34;26.20;28.70
24730;DHT22;12832;52.392;13.066;2023-05-10T04:46:00;26.10;28.60
24730;DHT22;12832;52.392;13.066;2023-05-10T04:48:26;26.10;28.60
24730;DHT22;12832;52.392;13.066;2023-05-10T04:50:52;26.10;28.70
24730;DHT22;12832;52.392;13.066;2023-05-10T04:53:19;26.10;28.70
24730;DHT22;12832;52.392;13.066;2023-05-10T04:55:45;26.10;28.70
24730;DHT22;12832;52.392;13.066;2023-05-10T04:58:12;26.10;28.70
24730;DHT22;12832;52.392;13.066;2023-05-10T05:00:38;26.10;28.70
24730;DHT22;12832;52.392;13.066;2023-05-10T05:03:04;26.10;28.80
24730;DHT22;12832;52.392;13.066;2023-05-10T05:05:31;26.10;28.90
24730;DHT22;12832;52.392;13.066;2023-05-10T05:07:57;26.00;28.90
24730;DHT22;12832;52.392;13.066;2023-05-10T05:10:23;26.00;29.00
24730;DHT22;12832;52.392;13.066;2023-05-10T05:12:49;25.90;29.10
24730;DHT22;12832;52.392;13.066;2023-05-10T05:15:16;25.90;29.10
24730;DHT22;12832;52.392;13.066;2023-05-10T05:17:43;25.90;29.10
24730;DHT22;12832;52.392;13.066;2023-05-10T05:22:36;25.80;29.20
24730;DHT22;12832;52.392;13.066;2023-05-10T05:25:03;25.80;29.20
24730;DHT22;12832;52.392;13.066;2023-05-10T05:27:30;25.80;29.20
24730;DHT22;12832;52.392;13.066;2023-05-10T05:29:57;25.80;29.30
24730;DHT22;12832;52.392;13.066;2023-05-10T05:32:24;25.70;29.80
24730;DHT22;12832;52.392;13.066;2023-05-10T05:34:51;25.70;29.30
24730;DHT22;12832;52.392;13.066;2023-05-10T05:37:20;25.70;29.30
24730;DHT22;12832;52.392;13.066;2023-05-10T05:39:47;25.70;29.30
24730;DHT22;12832;52.392;13.066;2023-05-10T05:42:13;25.70;29.30
24730;DHT22;12832;52.392;13.066;2023-05-10T05:44:40;25.70;29.30
24730;DHT22;12832;52.392;13.066;2023-05-10T05:47:06;25.60;29.30
24730;DHT22;12832;52.392;13.066;2023-05-10T05:49:32;25.60;29.30
24730;DHT22;12832;52.392;13.066;2023-05-10T05:51:59;25.60;29.40
24730;DHT22;12832;52.392;13.066;2023-05-10T05:54:26;25.60;29.40
24730;DHT22;12832;52.392;13.066;2023-05-10T05:56:57;25.60;29.40
24730;DHT22;12832;52.392;13.066;2023-05-10T05:59:26;25.60;29.50
24730;DHT22;12832;52.392;13.066;2023-05-10T06:01:53;25.60;29.50
24730;DHT22;12832;52.392;13.066;2023-05-10T06:04:19;25.60;29.50
24730;DHT22;12832;52.392;13.066;2023-05-10T06:06:45;25.60;29.50
24730;DHT22;12832;52.392;13.066;2023-05-10T06:09:12;25.60;29.50
24730;DHT22;12832;52.392;13.066;2023-05-10T06:11:38;25.60;29.50
24730;DHT22;12832;52.392;13.066;2023-05-10T06:14:05;25.60;29.50
24730;DHT22;12832;52.392;13.066;2023-05-10T06:16:33;25.60;29.60
24730;DHT22;12832;52.392;13.066;2023-05-10T06:19:00;25.60;29.60
24730;DHT22;12832;52.392;13.066;2023-05-10T06:21:26;25.60;29.60
24730;DHT22;12832;52.392;13.066;2023-05-10T06:23:52;25.60;29.60
24730;DHT22;12832;52.392;13.066;2023-05-10T06:26:18;25.60;29.60
24730;DHT22;12832;52.392;13.066;2023-05-10T06:28:44;25.60;29.60
24730;DHT22;12832;52.392;13.066;2023-05-10T06:31:10;25.60;29.70
24730;DHT22;12832;52.392;13.066;2023-05-10T06:33:37;25.60;29.70
24730;DHT22;12832;52.392;13.066;2023-05-10T06:36:04;25.60;29.70
24730;DHT22;12832;52.392;13.066;2023-05-10T06:38:30;25.60;29.70
24730;DHT22;12832;52.392;13.066;2023-05-10T06:40:56;25.60;29.70
24730;DHT22;12832;52.392;13.066;2023-05-10T06:43:23;25.60;29.70
24730;DHT22;12832;52.392;13.066;2023-05-10T06:45:50;25.50;29.60
24730;DHT22;12832;52.392;13.066;2023-05-10T06:48:17;25.60;29.70
24730;DHT22;12832;52.392;13.066;2023-05-10T06:50:43;25.50;29.70
24730;DHT22;12832;52.392;13.066;2023-05-10T06:53:10;25.50;29.70
24730;DHT22;12832;52.392;13.066;2023-05-10T06:55:36;25.60;29.80
24730;DHT22;12832;52.392;13.066;2023-05-10T06:58:02;25.50;29.80
24730;DHT22;12832;52.392;13.066;2023-05-10T07:00:28;25.50;29.70
24730;DHT22;12832;52.392;13.066;2023-05-10T07:02:54;25.50;29.80
24730;DHT22;12832;52.392;13.066;2023-05-10T07:05:21;25.50;29.80
24730;DHT22;12832;52.392;13.066;2023-05-10T07:07:47;25.60;29.80
24730;DHT22;12832;52.392;13.066;2023-05-10T07:10:14;25.50;29.80
24730;DHT22;12832;52.392;13.066;2023-05-10T07:12:40;25.50;29.80
24730;DHT22;12832;52.392;13.066;2023-05-10T07:15:07;25.50;29.80
24730;DHT22;12832;52.392;13.066;2023-05-10T07:17:33;25.50;29.80
24730;DHT22;12832;52.392;13.066;2023-05-10T07:20:00;25.50;29.80
24730;DHT22;12832;52.392;13.066;2023-05-10T07:22:26;25.50;29.80
24730;DHT22;12832;52.392;13.066;2023-05-10T07:24:52;25.50;29.80
24730;DHT22;12832;52.392;13.066;2023-05-10T07:27:18;25.50;29.80
24730;DHT22;12832;52.392;13.066;2023-05-10T07:29:44;25.50;29.80
24730;DHT22;12832;52.392;13.066;2023-05-10T07:32:11;25.50;29.80
24730;DHT22;12832;52.392;13.066;2023-05-10T07:34:37;25.50;29.80
24730;DHT22;12832;52.392;13.066;2023-05-10T07:37:03;25.50;29.80
24730;DHT22;12832;52.392;13.066;2023-05-10T07:39:30;25.50;29.80
24730;DHT22;12832;52.392;13.066;2023-05-10T07:41:56;25.50;29.80
24730;DHT22;12832;52.392;13.066;2023-05-10T07:44:23;25.50;29.90
24730;DHT22;12832;52.392;13.066;2023-05-10T07:46:49;25.50;29.80
24730;DHT22;12832;52.392;13.066;2023-05-10T07:49:15;25.50;29.90
24730;DHT22;12832;52.392;13.066;2023-05-10T07:51:42;25.50;29.90
24730;DHT22;12832;52.392;13.066;2023-05-10T07:54:08;25.50;29.90
24730;DHT22;12832;52.392;13.066;2023-05-10T07:56:34;25.50;29.90
24730;DHT22;12832;52.392;13.066;2023-05-10T07:59:02;25.50;29.90
24730;DHT22;12832;52.392;13.066;2023-05-10T08:01:34;25.50;29.90
24730;DHT22;12832;52.392;13.066;2023-05-10T08:04:00;25.50;29.90
24730;DHT22;12832;52.392;13.066;2023-05-10T08:06:28;25.50;29.90
24730;DHT22;12832;52.392;13.066;2023-05-10T08:08:55;25.50;29.90
24730;DHT22;12832;52.392;13.066;2023-05-10T08:11:22;25.50;29.90
24730;DHT22;12832;52.392;13.066;2023-05-10T08:13:49;25.50;29.90
24730;DHT22;12832;52.392;13.066;2023-05-10T08:16:17;25.50;29.90
24730;DHT22;12832;52.392;13.066;2023-05-10T08:18:44;25.50;29.90
24730;DHT22;12832;52.392;13.066;2023-05-10T08:21:11;25.40;29.90
24730;DHT22;12832;52.392;13.066;2023-05-10T08:23:38;25.50;30.00
24730;DHT22;12832;52.392;13.066;2023-05-10T08:26:04;25.50;30.00
24730;DHT22;12832;52.392;13.066;2023-05-10T08:28:30;25.50;30.00
24730;DHT22;12832;52.392;13.066;2023-05-10T08:30:56;25.50;30.00
24730;DHT22;12832;52.392;13.066;2023-05-10T08:33:22;25.50;30.00
24730;DHT22;12832;52.392;13.066;2023-05-10T08:35:49;25.40;30.00
24730;DHT22;12832;52.392;13.066;2023-05-10T08:38:15;25.40;30.00
24730;DHT22;12832;52.392;13.066;2023-05-10T08:40:42;25.40;30.00
24730;DHT22;12832;52.392;13.066;2023-05-10T08:43:11;25.40;30.10
24730;DHT22;12832;52.392;13.066;2023-05-10T08:45:39;25.50;30.20
24730;DHT22;12832;52.392;13.066;2023-05-10T08:48:07;25.50;30.20
24730;DHT22;12832;52.392;13.066;2023-05-10T08:50:40;25.50;30.20
24730;DHT22;12832;52.392;13.066;2023-05-10T08:53:11;25.40;30.20
24730;DHT22;12832;52.392;13.066;2023-05-10T08:55:38;25.40;30.30
24730;DHT22;12832;52.392;13.066;2023-05-10T08:58:05;25.40;30.30
24730;DHT22;12832;52.392;13.066;2023-05-10T09:00:32;25.40;30.30
24730;DHT22;12832;52.392;13.066;2023-05-10T09:02:59;25.40;30.30
24730;DHT22;12832;52.392;13.066;2023-05-10T09:05:26;25.40;30.40
24730;DHT22;12832;52.392;13.066;2023-05-10T09:07:52;25.40;30.40
24730;DHT22;12832;52.392;13.066;2023-05-10T09:10:19;25.40;30.40
24730;DHT22;12832;52.392;13.066;2023-05-10T09:12:46;25.40;30.50
24730;DHT22;12832;52.392;13.066;2023-05-10T09:15:15;25.50;30.60
24730;DHT22;12832;52.392;13.066;2023-05-10T09:17:43;25.50;30.60
24730;DHT22;12832;52.392;13.066;2023-05-10T09:20:10;25.40;30.50
24730;DHT22;12832;52.392;13.066;2023-05-10T09:22:36;25.50;30.70
24730;DHT22;12832;52.392;13.066;2023-05-10T09:25:05;25.40;30.60
24730;DHT22;12832;52.392;13.066;2023-05-10T09:27:32;25.40;30.60
24730;DHT22;12832;52.392;13.066;2023-05-10T09:29:58;25.40;30.60
24730;DHT22;12832;52.392;13.066;2023-05-10T09:32:42;25.40;30.60
24730;DHT22;12832;52.392;13.066;2023-05-10T09:35:09;25.50;30.80
24730;DHT22;12832;52.392;13.066;2023-05-10T09:37:36;25.50;30.70
24730;DHT22;12832;52.392;13.066;2023-05-10T09:40:06;25.40;30.60
24730;DHT22;12832;52.392;13.066;2023-05-10T09:42:34;25.40;30.70
24730;DHT22;12832;52.392;13.066;2023-05-10T09:45:05;25.50;30.80
24730;DHT22;12832;52.392;13.066;2023-05-10T09:47:35;25.50;30.80
24730;DHT22;12832;52.392;13.066;2023-05-10T09:50:03;25.40;30.70
24730;DHT22;12832;52.392;13.066;2023-05-10T09:52:30;25.40;30.70
24730;DHT22;12832;52.392;13.066;2023-05-10T09:55:11;25.40;30.90
24730;DHT22;12832;52.392;13.066;2023-05-10T09:57:38;25.40;30.90
24730;DHT22;12832;52.392;13.066;2023-05-10T10:00:05;25.40;30.90
24730;DHT22;12832;52.392;13.066;2023-05-10T10:02:32;25.40;31.00
24730;DHT22;12832;52.392;13.066;2023-05-10T10:05:01;25.40;31.00
24730;DHT22;12832;52.392;13.066;2023-05-10T10:07:29;25.40;31.00
24730;DHT22;12832;52.392;13.066;2023-05-10T10:09:55;25.40;31.10
24730;DHT22;12832;52.392;13.066;2023-05-10T10:12:21;25.40;31.70
24730;DHT22;12832;52.392;13.066;2023-05-10T10:14:48;25.40;31.10
24730;DHT22;12832;52.392;13.066;2023-05-10T10:17:16;25.40;31.10
24730;DHT22;12832;52.392;13.066;2023-05-10T10:19:43;25.40;31.80
24730;DHT22;12832;52.392;13.066;2023-05-10T10:22:10;25.40;31.20
24730;DHT22;12832;52.392;13.066;2023-05-10T10:24:38;25.40;31.30
24730;DHT22;12832;52.392;13.066;2023-05-10T10:27:26;25.40;31.20
24730;DHT22;12832;52.392;13.066;2023-05-10T10:35:15;25.40;31.20
24730;DHT22;12832;52.392;13.066;2023-05-10T10:37:46;25.40;31.20
24730;DHT22;12832;52.392;13.066;2023-05-10T10:40:27;25.40;31.30
24730;DHT22;12832;52.392;13.066;2023-05-10T10:42:54;25.40;31.40
24730;DHT22;12832;52.392;13.066;2023-05-10T10:45:21;25.40;31.40
24730;DHT22;12832;52.392;13.066;2023-05-10T10:47:47;25.40;31.50
24730;DHT22;12832;52.392;13.066;2023-05-10T10:50:14;25.40;31.50
24730;DHT22;12832;52.392;13.066;2023-05-10T10:52:45;25.40;31.50
24730;DHT22;12832;52.392;13.066;2023-05-10T10:55:20;25.40;31.50
24730;DHT22;12832;52.392;13.066;2023-05-10T10:57:56;25.40;31.50
24730;DHT22;12832;52.392;13.066;2023-05-10T11:00:34;25.40;31.50
24730;DHT22;12832;52.392;13.066;2023-05-10T11:03:05;25.40;31.50
24730;DHT22;12832;52.392;13.066;2023-05-10T11:13:47;25.40;31.70
24730;DHT22;12832;52.392;13.066;2023-05-10T11:19:06;25.50;31.80
24730;DHT22;12832;52.392;13.066;2023-05-10T11:21:34;25.40;31.70
24730;DHT22;12832;52.392;13.066;2023-05-10T11:24:26;25.40;31.70
24730;DHT22;12832;52.392;13.066;2023-05-10T11:26:53;25.40;31.70
24730;DHT22;12832;52.392;13.066;2023-05-10T11:29:20;25.40;31.70
24730;DHT22;12832;52.392;13.066;2023-05-10T11:31:47;25.40;31.80
24730;DHT22;12832;52.392;13.066;2023-05-10T11:34:26;25.40;31.80
24730;DHT22;12832;52.392;13.066;2023-05-10T11:36:54;25.40;31.80
24730;DHT22;12832;52.392;13.066;2023-05-10T11:39:25;25.40;31.90
24730;DHT22;12832;52.392;13.066;2023-05-10T11:41:52;25.40;31.90
24730;DHT22;12832;52.392;13.066;2023-05-10T11:44:18;25.40;31.90
24730;DHT22;12832;52.392;13.066;2023-05-10T11:46:44;25.40;32.00
24730;DHT22;12832;52.392;13.066;2023-05-10T11:49:10;25.40;32.00
24730;DHT22;12832;52.392;13.066;2023-05-10T11:51:37;25.40;32.00
24730;DHT22;12832;52.392;13.066;2023-05-10T11:54:06;25.50;32.10
24730;DHT22;12832;52.392;13.066;2023-05-10T11:56:34;25.50;32.10
24730;DHT22;12832;52.392;13.066;2023-05-10T11:59:00;25.50;32.10
24730;DHT22;12832;52.392;13.066;2023-05-10T12:01:28;25.50;32.10
24730;DHT22;12832;52.392;13.066;2023-05-10T12:03:56;25.50;32.20
24730;DHT22;12832;52.392;13.066;2023-05-10T12:06:32;25.40;32.10
24730;DHT22;12832;52.392;13.066;2023-05-10T12:08:58;25.40;32.20
24730;DHT22;12832;52.392;13.066;2023-05-10T12:11:27;25.40;32.20
24730;DHT22;12832;52.392;13.066;2023-05-10T12:13:54;25.50;32.20
24730;DHT22;12832;52.392;13.066;2023-05-10T12:16:24;25.50;32.30
24730;DHT22;12832;52.392;13.066;2023-05-10T12:18:52;25.50;32.30
24730;DHT22;12832;52.392;13.066;2023-05-10T12:21:20;25.50;32.30
24730;DHT22;12832;52.392;13.066;2023-05-10T12:23:50;25.40;32.30
24730;DHT22;12832;52.392;13.066;2023-05-10T12:26:16;25.50;32.40
24730;DHT22;12832;52.392;13.066;2023-05-10T12:28:42;25.50;32.40
24730;DHT22;12832;52.392;13.066;2023-05-10T12:31:09;25.50;32.40
24730;DHT22;12832;52.392;13.066;2023-05-10T12:33:39;25.50;32.30
24730;DHT22;12832;52.392;13.066;2023-05-10T12:36:12;25.50;32.40
24730;DHT22;12832;52.392;13.066;2023-05-10T12:38:40;25.50;32.40
24730;DHT22;12832;52.392;13.066;2023-05-10T12:41:14;25.50;32.40
24730;DHT22;12832;52.392;13.066;2023-05-10T12:43:41;25.50;32.40
24730;DHT22;12832;52.392;13.066;2023-05-10T12:46:14;25.50;32.50
24730;DHT22;12832;52.392;13.066;2023-05-10T12:48:42;25.50;32.40
24730;DHT22;12832;52.392;13.066;2023-05-10T12:51:09;25.50;32.50
24730;DHT22;12832;52.392;13.066;2023-05-10T12:53:38;25.50;32.50
24730;DHT22;12832;52.392;13.066;2023-05-10T12:56:07;25.40;32.40
24730;DHT22;12832;52.392;13.066;2023-05-10T12:58:34;25.50;32.50
24730;DHT22;12832;52.392;13.066;2023-05-10T13:01:02;25.50;32.50
24730;DHT22;12832;52.392;13.066;2023-05-10T13:03:29;25.50;32.60
24730;DHT22;12832;52.392;13.066;2023-05-10T13:05:55;25.50;32.60
24730;DHT22;12832;52.392;13.066;2023-05-10T13:08:21;25.50;32.60
24730;DHT22;12832;52.392;13.066;2023-05-10T13:10:48;25.50;32.60
24730;DHT22;12832;52.392;13.066;2023-05-10T13:13:14;25.50;32.60
24730;DHT22;12832;52.392;13.066;2023-05-10T13:15:41;25.50;32.60
24730;DHT22;12832;52.392;13.066;2023-05-10T13:18:07;25.50;32.60
24730;DHT22;12832;52.392;13.066;2023-05-10T13:20:34;25.50;32.70
24730;DHT22;12832;52.392;13.066;2023-05-10T13:23:02;25.50;32.70
24730;DHT22;12832;52.392;13.066;2023-05-10T13:25:29;25.50;32.70
24730;DHT22;12832;52.392;13.066;2023-05-10T13:27:56;25.50;32.70
24730;DHT22;12832;52.392;13.066;2023-05-10T13:30:22;25.50;32.70
24730;DHT22;12832;52.392;13.066;2023-05-10T13:32:49;25.50;32.70
24730;DHT22;12832;52.392;13.066;2023-05-10T13:35:16;25.50;32.70
24730;DHT22;12832;52.392;13.066;2023-05-10T13:37:42;25.50;32.70
24730;DHT22;12832;52.392;13.066;2023-05-10T13:40:08;25.50;32.70
24730;DHT22;12832;52.392;13.066;2023-05-10T13:42:34;25.50;32.70
24730;DHT22;12832;52.392;13.066;2023-05-10T13:45:01;25.50;32.70
24730;DHT22;12832;52.392;13.066;2023-05-10T13:47:30;25.50;32.70
24730;DHT22;12832;52.392;13.066;2023-05-10T13:49:56;25.50;32.70
24730;DHT22;12832;52.392;13.066;2023-05-10T13:52:23;25.50;32.70
24730;DHT22;12832;52.392;13.066;2023-05-10T13:54:49;25.50;32.70
24730;DHT22;12832;52.392;13.066;2023-05-10T13:57:18;25.50;32.70
24730;DHT22;12832;52.392;13.066;2023-05-10T13:59:44;25.50;32.70
24730;DHT22;12832;52.392;13.066;2023-05-10T14:02:10;25.50;32.70
24730;DHT22;12832;52.392;13.066;2023-05-10T14:04:38;25.50;32.70
24730;DHT22;12832;52.392;13.066;2023-05-10T14:07:04;25.50;32.70
24730;DHT22;12832;52.392;13.066;2023-05-10T14:09:31;25.50;32.70
24730;DHT22;12832;52.392;13.066;2023-05-10T14:11:57;25.50;33.30
24730;DHT22;12832;52.392;13.066;2023-05-10T14:14:23;25.50;32.70
24730;DHT22;12832;52.392;13.066;2023-05-10T14:16:49;25.50;32.70
24730;DHT22;12832;52.392;13.066;2023-05-10T14:19:15;25.50;32.70
24730;DHT22;12832;52.392;13.066;2023-05-10T14:21:42;25.50;32.60
24730;DHT22;12832;52.392;13.066;2023-05-10T14:24:08;25.50;32.60
24730;DHT22;12832;52.392;13.066;2023-05-10T14:26:35;25.50;32.60
24730;DHT22;12832;52.392;13.066;2023-05-10T14:29:01;25.50;32.60
24730;DHT22;12832;52.392;13.066;2023-05-10T14:31:27;25.50;32.60
24730;DHT22;12832;52.392;13.066;2023-05-10T14:33:56;25.50;32.60
24730;DHT22;12832;52.392;13.066;2023-05-10T14:36:23;25.50;32.70
24730;DHT22;12832;52.392;13.066;2023-05-10T14:38:49;25.50;32.70
24730;DHT22;12832;52.392;13.066;2023-05-10T14:41:16;25.50;32.70
24730;DHT22;12832;52.392;13.066;2023-05-10T14:43:43;25.50;32.70
24730;DHT22;12832;52.392;13.066;2023-05-10T14:46:09;25.50;32.80
24730;DHT22;12832;52.392;13.066;2023-05-10T14:48:36;25.50;32.70
24730;DHT22;12832;52.392;13.066;2023-05-10T14:51:02;25.50;32.80
24730;DHT22;12832;52.392;13.066;2023-05-10T14:53:29;25.50;32.80
24730;DHT22;12832;52.392;13.066;2023-05-10T14:55:55;25.50;32.80
24730;DHT22;12832;52.392;13.066;2023-05-10T14:58:21;25.50;32.70
24730;DHT22;12832;52.392;13.066;2023-05-10T15:00:47;25.50;32.80
24730;DHT22;12832;52.392;13.066;2023-05-10T15:03:15;25.50;32.80
24730;DHT22;12832;52.392;13.066;2023-05-10T15:05:41;25.60;32.80
24730;DHT22;12832;52.392;13.066;2023-05-10T15:08:08;25.50;32.80
24730;DHT22;12832;52.392;13.066;2023-05-10T15:10:35;25.50;33.20
24730;DHT22;12832;52.392;13.066;2023-05-10T15:13:04;25.50;33.60
24730;DHT22;12832;52.392;13.066;2023-05-10T15:15:30;25.50;34.00
24730;DHT22;12832;52.392;13.066;2023-05-10T15:17:56;25.50;34.30
24730;DHT22;12832;52.392;13.066;2023-05-10T15:20:23;25.50;34.50
24730;DHT22;12832;52.392;13.066;2023-05-10T15:22:49;25.50;34.60
24730;DHT22;12832;52.392;13.066;2023-05-10T15:25:15;25.60;35.00
24730;DHT22;12832;52.392;13.066;2023-05-10T15:27:42;25.50;35.10
24730;DHT22;12832;52.392;13.066;2023-05-10T15:30:10;25.50;35.20
24730;DHT22;12832;52.392;13.066;2023-05-10T15:32:36;25.50;35.40
24730;DHT22;12832;52.392;13.066;2023-05-10T15:35:03;25.50;35.40
24730;DHT22;12832;52.392;13.066;2023-05-10T15:37:29;25.50;35.60
24730;DHT22;12832;52.392;13.066;2023-05-10T15:39:55;25.60;35.80
24730;DHT22;12832;52.392;13.066;2023-05-10T15:42:29;25.50;35.90
24730;DHT22;12832;52.392;13.066;2023-05-10T15:44:58;25.60;36.10
24730;DHT22;12832;52.392;13.066;2023-05-10T15:47:25;25.50;36.10
24730;DHT22;12832;52.392;13.066;2023-05-10T15:49:52;25.60;36.20
24730;DHT22;12832;52.392;13.066;2023-05-10T15:52:19;25.50;36.30
24730;DHT22;12832;52.392;13.066;2023-05-10T15:54:46;25.60;36.50